Terminal Aerodrome Forecast
Issued by NWS

Home | Current Version | Previous Version | Text Only | Print | Product List | Glossary On
Versions: 1 2 3 4 5 6 7 8 9 10 11 12 13
000
FTUS45 KFGZ 161135
TAFGCN
TAF
KGCN 161135Z 1612/1712 VRB02KT P6SM SKC
     FM161800 21010G16KT P6SM SCT090
     FM170200 VRB02KT P6SM FEW090=

USA.gov is the U.S. government's official web portal to all federal, state and local government web resources and services.